Miranda, South Dakota
Current Conditions -  °F | °C
As of 12:53 AM on Wednesday 22 Oct 2014 (Local Time) from KABR Reporting Station
Clear Clear  
Wind Chill: 63°   Ceiling: Unl
Heat Index: 63°   Visibility: 10mi
Dew Point: 42°   Wind: 22mph
Humidity: 46%   Direction: 170°S
Pressure: 29.84"   Gusts: 37mph
Location:  45.0672°N, 99.0996°W
Report Text: KABR 220553Z AUTO 17019G32KT 10SM CLR 17/06 A2984 RMK AO2 PK WND 17032/0545 SLP099 T01720056 10217 20172 402670056 58004
Loading
Personal Weather Stations






























Interactive Weather Map
Tropical Storm Tracking
New forecast layout! Learn more

10-Day Weather Forecast

Advertisements
Track Severe Weather on mobile